createdAt,value
2022-09-29T00:00:47.264Z,0.00
2022-09-29T00:01:47.410Z,0.00
2022-09-29T00:02:47.542Z,0.00
2022-09-29T00:03:47.704Z,0.00
2022-09-29T00:04:47.824Z,0.00
2022-09-29T00:05:47.943Z,0.00
2022-09-29T00:06:48.051Z,0.00
2022-09-29T00:07:48.174Z,0.00
2022-09-29T00:08:48.347Z,0.00
2022-09-29T00:09:48.439Z,0.00
2022-09-29T00:10:48.619Z,0.00
2022-09-29T00:11:48.733Z,0.00
2022-09-29T00:12:48.874Z,0.00
2022-09-29T00:13:49.013Z,0.00
2022-09-29T00:14:49.133Z,0.00
2022-09-29T00:15:49.260Z,0.00
2022-09-29T00:16:49.381Z,0.00
2022-09-29T00:18:12.211Z,0.00
2022-09-29T00:18:50.664Z,0.00
2022-09-29T00:19:49.781Z,0.00
2022-09-29T00:20:49.900Z,0.00
2022-09-29T00:21:50.041Z,0.00
2022-09-29T00:22:50.191Z,0.00
2022-09-29T00:23:50.288Z,0.00
2022-09-29T00:24:50.500Z,0.00
2022-09-29T00:25:50.590Z,0.00
2022-09-29T00:26:50.711Z,0.00
2022-09-29T00:27:50.829Z,0.00
2022-09-29T00:28:50.937Z,0.00
2022-09-29T00:29:51.110Z,0.00
2022-09-29T00:30:51.232Z,0.00
2022-09-29T00:31:51.387Z,0.00
2022-09-29T00:32:51.466Z,0.00
2022-09-29T00:33:51.619Z,0.00
2022-09-29T00:34:51.755Z,0.00
2022-09-29T00:35:51.868Z,0.00
2022-09-29T00:36:51.987Z,0.00
2022-09-29T00:37:52.120Z,0.00
2022-09-29T00:38:52.242Z,0.00
2022-09-29T00:39:52.346Z,0.00
2022-09-29T00:40:52.540Z,0.00
2022-09-29T00:41:52.618Z,0.00
2022-09-29T00:42:52.740Z,0.00
2022-09-29T00:43:52.861Z,0.00
2022-09-29T00:44:52.967Z,0.00
2022-09-29T00:45:53.148Z,0.00
2022-09-29T00:46:53.257Z,0.00
2022-09-29T00:47:53.378Z,0.00
2022-09-29T00:48:53.485Z,0.00
2022-09-29T00:49:53.603Z,0.00
2022-09-29T00:50:53.743Z,0.00
2022-09-29T00:51:53.885Z,0.00
2022-09-29T00:52:54.025Z,0.00
2022-09-29T00:53:54.135Z,0.00
2022-09-29T00:54:54.266Z,0.00
2022-09-29T00:55:54.377Z,0.00
2022-09-29T00:56:54.506Z,0.00
2022-09-29T00:57:54.654Z,0.00
2022-09-29T00:58:54.809Z,0.00
2022-09-29T00:59:54.906Z,0.00
2022-09-29T01:00:55.058Z,0.00
2022-09-29T01:01:55.219Z,0.00
2022-09-29T01:02:55.273Z,0.00
2022-09-29T01:03:55.418Z,0.00
2022-09-29T01:04:55.533Z,0.00
2022-09-29T01:05:55.655Z,0.00
2022-09-29T01:06:55.773Z,0.00
2022-09-29T01:07:55.901Z,0.00
2022-09-29T01:08:56.027Z,0.00
2022-09-29T01:09:56.185Z,0.00
2022-09-29T01:10:56.304Z,0.00
2022-09-29T01:11:56.422Z,0.00
2022-09-29T01:12:56.548Z,0.00
2022-09-29T01:13:56.660Z,0.00
2022-09-29T01:14:56.794Z,0.00
2022-09-29T01:15:56.955Z,0.00
2022-09-29T01:16:57.043Z,0.00
2022-09-29T01:17:57.201Z,0.00
2022-09-29T01:18:57.326Z,0.00
2022-09-29T01:20:01.963Z,0.00
2022-09-29T01:20:58.621Z,0.00
2022-09-29T01:22:05.463Z,0.00
2022-09-29T01:22:57.893Z,0.00
2022-09-29T01:23:58.015Z,0.00
2022-09-29T01:24:58.144Z,0.00
2022-09-29T01:25:58.251Z,0.00
2022-09-29T01:26:58.403Z,0.00
2022-09-29T01:27:58.584Z,0.00
2022-09-29T01:28:58.713Z,0.00
2022-09-29T01:29:58.832Z,0.00
2022-09-29T01:30:58.952Z,0.00
2022-09-29T01:31:59.076Z,0.00
2022-09-29T01:32:59.195Z,0.00
2022-09-29T01:33:59.332Z,0.00
2022-09-29T01:34:59.481Z,0.00
2022-09-29T01:35:59.602Z,0.00
2022-09-29T01:36:59.735Z,0.00
2022-09-29T01:37:59.841Z,0.00
2022-09-29T01:39:00.754Z,0.00
2022-09-29T01:40:00.178Z,0.00
2022-09-29T01:41:00.443Z,0.00
2022-09-29T01:42:00.473Z,0.00
2022-09-29T01:43:00.593Z,0.00
2022-09-29T01:44:00.725Z,0.00
2022-09-29T01:45:00.891Z,0.00
2022-09-29T01:46:01.118Z,0.00
2022-09-29T01:47:01.210Z,0.00
2022-09-29T01:48:01.345Z,0.00
2022-09-29T01:49:01.472Z,0.00
2022-09-29T01:50:01.632Z,0.00
2022-09-29T01:51:01.745Z,0.00
2022-09-29T01:52:01.878Z,0.00
2022-09-29T01:53:01.990Z,0.00
2022-09-29T01:54:02.120Z,0.00
2022-09-29T01:55:02.233Z,0.00
2022-09-29T01:56:02.371Z,0.00
2022-09-29T01:57:02.510Z,0.00
2022-09-29T01:58:02.634Z,0.00
2022-09-29T01:59:02.749Z,0.00
2022-09-29T02:00:02.868Z,0.00
2022-09-29T02:01:03.163Z,0.00
2022-09-29T02:02:03.185Z,0.00
2022-09-29T02:03:03.292Z,0.00
2022-09-29T02:04:03.400Z,0.00
2022-09-29T02:05:03.520Z,0.00
2022-09-29T02:06:03.680Z,0.00
2022-09-29T02:07:03.810Z,0.00
2022-09-29T02:08:03.960Z,0.00
2022-09-29T02:09:04.083Z,0.00
2022-09-29T02:10:04.210Z,0.00
2022-09-29T02:11:04.370Z,0.00
2022-09-29T02:12:04.488Z,0.00
2022-09-29T02:13:04.611Z,0.00
2022-09-29T02:14:04.739Z,0.00
2022-09-29T02:15:04.858Z,0.00
2022-09-29T02:16:05.028Z,0.00
2022-09-29T02:17:05.098Z,0.00
2022-09-29T02:18:05.207Z,0.00
2022-09-29T02:19:05.346Z,0.00
2022-09-29T02:20:05.505Z,0.00
2022-09-29T02:21:05.619Z,0.00
2022-09-29T02:22:05.745Z,0.00
2022-09-29T02:23:05.858Z,0.00
2022-09-29T02:24:06.012Z,0.00
2022-09-29T02:25:06.127Z,0.00
2022-09-29T02:26:06.256Z,0.00
2022-09-29T02:27:06.374Z,0.00
2022-09-29T02:28:06.496Z,0.00
2022-09-29T02:29:06.645Z,0.00
2022-09-29T02:30:06.745Z,0.00
2022-09-29T02:31:06.913Z,0.00
2022-09-29T02:32:07.036Z,0.00
2022-09-29T02:33:07.155Z,0.00
2022-09-29T02:34:07.267Z,0.00
2022-09-29T02:35:07.414Z,0.00
2022-09-29T02:36:07.528Z,0.00
2022-09-29T02:37:07.677Z,0.00
2022-09-29T02:38:07.818Z,0.00
2022-09-29T02:39:07.956Z,0.00
2022-09-29T02:40:08.095Z,0.00
2022-09-29T02:41:08.216Z,0.00
2022-09-29T02:42:08.325Z,0.00
2022-09-29T02:43:08.473Z,0.00
2022-09-29T02:44:09.325Z,0.00
2022-09-29T02:45:08.679Z,0.00
2022-09-29T02:46:08.859Z,0.00
2022-09-29T02:47:08.972Z,0.00
2022-09-29T02:48:09.132Z,0.00
2022-09-29T02:49:09.285Z,0.00
2022-09-29T02:50:09.404Z,0.00
2022-09-29T02:51:09.512Z,0.00
2022-09-29T02:52:09.722Z,0.00
2022-09-29T02:53:09.849Z,0.00
2022-09-29T02:54:09.981Z,0.00
2022-09-29T02:55:10.134Z,0.00
2022-09-29T02:56:10.252Z,0.00
2022-09-29T02:57:10.400Z,0.00
2022-09-29T02:58:10.545Z,0.00
2022-09-29T02:59:10.655Z,0.00
2022-09-29T03:00:10.774Z,0.00
2022-09-29T03:01:10.922Z,0.00
2022-09-29T03:02:11.060Z,0.00
2022-09-29T03:03:11.444Z,0.00
2022-09-29T03:04:11.301Z,0.00
2022-09-29T03:05:11.418Z,0.00
2022-09-29T03:06:11.543Z,0.00
2022-09-29T03:07:11.693Z,0.00
2022-09-29T03:08:11.866Z,0.00
2022-09-29T03:09:11.991Z,0.00
2022-09-29T03:10:12.152Z,0.00
2022-09-29T03:11:12.273Z,0.00
2022-09-29T03:12:12.390Z,0.00
2022-09-29T03:13:12.511Z,0.00
2022-09-29T03:14:12.648Z,0.00
2022-09-29T03:15:12.791Z,0.00
2022-09-29T03:16:13.029Z,0.00
2022-09-29T03:17:13.079Z,0.00
2022-09-29T03:18:13.227Z,0.00
2022-09-29T03:19:13.360Z,0.00
2022-09-29T03:20:13.475Z,0.00
2022-09-29T03:21:13.575Z,0.00
2022-09-29T03:22:13.768Z,0.00
2022-09-29T03:23:13.888Z,0.00
2022-09-29T03:24:13.998Z,0.00
2022-09-29T03:25:14.115Z,0.00
2022-09-29T03:26:14.235Z,0.00
2022-09-29T03:27:14.361Z,0.00
2022-09-29T03:28:14.508Z,0.00
2022-09-29T03:29:14.637Z,0.00
2022-09-29T03:30:14.755Z,0.00
2022-09-29T03:31:14.921Z,0.00
2022-09-29T03:32:15.010Z,0.00
2022-09-29T03:33:15.157Z,0.00
2022-09-29T03:34:15.270Z,0.00
2022-09-29T03:35:15.392Z,0.00
2022-09-29T03:36:15.528Z,0.00
2022-09-29T03:37:15.739Z,0.00
2022-09-29T03:38:15.807Z,0.00
2022-09-29T03:39:15.965Z,0.00
2022-09-29T03:40:16.126Z,0.00
2022-09-29T03:41:16.245Z,0.00
2022-09-29T03:42:16.388Z,0.00
2022-09-29T03:43:16.457Z,0.00
2022-09-29T03:44:16.646Z,0.00
2022-09-29T03:45:16.786Z,0.00
2022-09-29T03:46:16.934Z,0.00
2022-09-29T03:47:17.073Z,0.00
2022-09-29T03:48:19.640Z,0.00
2022-09-29T03:49:17.445Z,0.00
2022-09-29T03:50:17.441Z,0.00
2022-09-29T03:51:17.553Z,0.00
2022-09-29T03:52:17.755Z,0.00
2022-09-29T03:53:17.904Z,0.00
2022-09-29T03:54:18.022Z,0.00
2022-09-29T03:55:18.143Z,0.00
2022-09-29T03:56:18.263Z,0.00
2022-09-29T03:57:18.392Z,0.00
2022-09-29T03:58:18.523Z,0.00
2022-09-29T03:59:18.790Z,0.00
2022-09-29T04:00:18.763Z,0.00
2022-09-29T04:01:18.951Z,0.00
2022-09-29T04:02:19.085Z,0.00
2022-09-29T04:03:19.202Z,0.00
2022-09-29T04:04:19.332Z,0.00
2022-09-29T04:05:19.484Z,0.00
2022-09-29T04:06:19.603Z,0.00
2022-09-29T04:07:21.170Z,0.00
2022-09-29T04:08:19.900Z,0.00
2022-09-29T04:09:20.241Z,0.00
2022-09-29T04:10:20.159Z,0.00
2022-09-29T04:11:20.279Z,0.00
2022-09-29T04:12:20.402Z,0.00
2022-09-29T04:13:20.540Z,0.00
2022-09-29T04:14:20.679Z,0.00
2022-09-29T04:15:20.788Z,0.00
2022-09-29T04:16:20.944Z,0.00
2022-09-29T04:17:21.063Z,0.00
2022-09-29T04:18:21.187Z,0.00
2022-09-29T04:19:21.309Z,0.00
2022-09-29T04:20:21.441Z,0.00
2022-09-29T04:21:21.621Z,0.00
2022-09-29T04:22:21.717Z,0.00
2022-09-29T04:23:21.860Z,0.00
2022-09-29T04:24:22.010Z,0.00
2022-09-29T04:25:22.129Z,0.00
2022-09-29T04:26:22.248Z,0.00
2022-09-29T04:27:22.357Z,0.00
2022-09-29T04:28:22.511Z,0.00
2022-09-29T04:29:22.641Z,0.00
2022-09-29T04:30:22.758Z,0.00
2022-09-29T04:31:22.935Z,0.00
2022-09-29T04:32:23.009Z,0.00
2022-09-29T04:33:23.141Z,0.00
2022-09-29T04:34:23.267Z,0.00
2022-09-29T04:35:23.382Z,0.00
2022-09-29T04:36:23.498Z,0.00
2022-09-29T04:37:23.605Z,0.00
2022-09-29T04:38:23.771Z,0.00
2022-09-29T04:39:23.895Z,0.00
2022-09-29T04:40:24.084Z,0.00
2022-09-29T04:41:24.121Z,0.00
2022-09-29T04:42:24.308Z,0.00
2022-09-29T04:43:24.451Z,0.00
2022-09-29T04:44:24.620Z,0.00
2022-09-29T04:45:24.757Z,0.00
2022-09-29T04:46:24.876Z,0.00
2022-09-29T04:47:24.995Z,0.00
2022-09-29T04:48:25.119Z,0.00
2022-09-29T04:49:25.254Z,0.00
2022-09-29T04:50:25.430Z,0.00
2022-09-29T04:51:25.568Z,0.00
2022-09-29T04:52:25.695Z,0.00
2022-09-29T04:53:25.811Z,0.00
2022-09-29T04:54:25.956Z,0.00
2022-09-29T04:55:26.185Z,0.00
2022-09-29T04:56:26.683Z,0.00
2022-09-29T04:57:26.363Z,0.00
2022-09-29T04:58:26.524Z,0.00
2022-09-29T04:59:27.364Z,4.00
2022-09-29T05:00:27.503Z,4.00
2022-09-29T05:01:27.005Z,0.00
2022-09-29T05:02:27.225Z,4.00
2022-09-29T05:03:28.172Z,4.00
2022-09-29T05:04:27.545Z,4.00
2022-09-29T05:05:27.614Z,4.00
2022-09-29T05:06:28.184Z,4.00
2022-09-29T05:07:27.860Z,8.00
2022-09-29T05:08:28.069Z,12.00
2022-09-29T05:09:33.087Z,12.00
2022-09-29T05:10:29.270Z,12.00
2022-09-29T05:11:28.372Z,20.00
2022-09-29T05:12:28.504Z,20.00
2022-09-29T05:13:28.611Z,28.00
2022-09-29T05:14:28.750Z,32.00
2022-09-29T05:15:28.891Z,32.00
2022-09-29T05:16:29.077Z,40.00
2022-09-29T05:17:29.182Z,48.00
2022-09-29T05:18:29.299Z,56.00
2022-09-29T05:19:29.431Z,64.00
2022-09-29T05:20:38.261Z,76.00
2022-09-29T05:21:30.712Z,84.00
2022-09-29T05:22:29.832Z,96.00
2022-09-29T05:23:29.970Z,108.00
2022-09-29T05:24:30.142Z,124.00
2022-09-29T05:25:30.290Z,136.00
2022-09-29T05:26:30.418Z,156.00
2022-09-29T05:27:30.540Z,172.00
2022-09-29T05:28:30.679Z,188.00
2022-09-29T05:29:30.780Z,212.00
2022-09-29T05:30:30.897Z,232.00
2022-09-29T05:31:31.057Z,252.00
2022-09-29T05:32:31.931Z,276.00
2022-09-29T05:33:31.361Z,296.00
2022-09-29T05:34:31.519Z,324.00
2022-09-29T05:35:31.673Z,348.00
2022-09-29T05:36:31.828Z,372.00
2022-09-29T05:37:31.967Z,400.00
2022-09-29T05:38:32.139Z,428.00
2022-09-29T05:39:32.269Z,456.00
2022-09-29T05:40:32.371Z,484.00
2022-09-29T05:41:32.461Z,516.00
2022-09-29T05:42:32.608Z,544.00
2022-09-29T05:43:32.749Z,576.00
2022-09-29T05:44:32.988Z,600.00
2022-09-29T05:45:33.095Z,636.00
2022-09-29T05:46:33.168Z,664.00
2022-09-29T05:47:33.321Z,692.00
2022-09-29T05:48:33.459Z,716.00
2022-09-29T05:49:33.615Z,740.00
2022-09-29T05:50:33.781Z,764.00
2022-09-29T05:51:33.917Z,780.00
2022-09-29T05:52:34.068Z,796.00
2022-09-29T05:53:34.197Z,820.00
2022-09-29T05:54:34.346Z,840.00
2022-09-29T05:55:34.505Z,872.00
2022-09-29T05:56:34.787Z,904.00
2022-09-29T05:57:34.814Z,948.00
2022-09-29T05:58:34.946Z,1000.00
2022-09-29T05:59:35.146Z,1060.00
2022-09-29T06:00:35.252Z,1100.00
2022-09-29T06:01:35.405Z,1132.00
2022-09-29T06:02:35.558Z,1148.00
2022-09-29T06:03:35.688Z,1168.00
2022-09-29T06:04:40.519Z,1192.00
2022-09-29T06:05:36.933Z,1228.00
2022-09-29T06:06:36.073Z,1272.00
2022-09-29T06:07:36.227Z,1328.00
2022-09-29T06:08:36.379Z,1384.00
2022-09-29T06:09:36.516Z,1444.00
2022-09-29T06:10:36.653Z,1508.00
2022-09-29T06:11:36.835Z,1572.00
2022-09-29T06:12:36.975Z,1636.00
2022-09-29T06:13:37.118Z,1692.00
2022-09-29T06:14:37.273Z,1744.00
2022-09-29T06:15:37.417Z,1784.00
2022-09-29T06:16:37.541Z,1812.00
2022-09-29T06:17:37.705Z,1832.00
2022-09-29T06:18:37.786Z,1860.00
2022-09-29T06:19:40.705Z,1900.00
2022-09-29T06:20:39.107Z,1968.00
2022-09-29T06:21:38.263Z,2012.00
2022-09-29T06:22:38.402Z,2036.00
2022-09-29T06:23:38.543Z,2028.00
2022-09-29T06:24:38.664Z,1996.00
2022-09-29T06:25:38.813Z,1976.00
2022-09-29T06:26:38.924Z,1964.00
2022-09-29T06:27:39.020Z,1964.00
2022-09-29T06:28:39.165Z,1984.00
2022-09-29T06:29:39.293Z,2024.00
2022-09-29T06:30:39.440Z,2048.00
2022-09-29T06:31:39.569Z,2112.00
2022-09-29T06:32:39.653Z,2164.00
2022-09-29T06:33:39.788Z,2184.00
2022-09-29T06:34:39.920Z,2228.00
2022-09-29T06:35:40.127Z,2264.00
2022-09-29T06:36:40.169Z,2308.00
2022-09-29T06:37:40.332Z,2364.00
2022-09-29T06:38:40.462Z,2400.00
2022-09-29T06:39:40.603Z,2428.00
2022-09-29T06:40:40.787Z,2460.00
2022-09-29T06:41:40.888Z,2496.00
2022-09-29T06:42:41.010Z,2524.00
2022-09-29T06:43:41.160Z,2548.00
2022-09-29T06:44:41.322Z,2572.00
2022-09-29T06:45:41.542Z,2600.00
2022-09-29T06:46:41.570Z,2620.00
2022-09-29T06:47:41.726Z,2648.00
2022-09-29T06:48:41.849Z,2668.00
2022-09-29T06:49:46.528Z,2688.00
2022-09-29T06:50:43.083Z,2704.00
2022-09-29T06:51:46.180Z,2720.00
2022-09-29T06:52:43.826Z,2732.00
2022-09-29T06:53:42.438Z,2752.00
2022-09-29T06:54:42.566Z,2764.00
2022-09-29T06:55:42.719Z,2788.00
2022-09-29T06:56:42.802Z,2812.00
2022-09-29T06:57:42.998Z,2832.00
2022-09-29T06:58:44.002Z,2856.00
2022-09-29T06:59:43.207Z,2868.00
2022-09-29T07:00:44.911Z,2884.00
2022-09-29T07:01:43.520Z,2896.00
2022-09-29T07:02:43.655Z,2908.00
2022-09-29T07:03:43.787Z,2920.00
2022-09-29T07:04:43.876Z,2932.00
2022-09-29T07:05:52.724Z,2940.00
2022-09-29T07:06:45.140Z,2952.00
2022-09-29T07:07:45.484Z,2968.00
2022-09-29T07:08:44.426Z,2980.00
2022-09-29T07:09:44.574Z,2996.00
2022-09-29T07:10:44.723Z,3012.00
2022-09-29T07:11:44.875Z,3028.00
2022-09-29T07:12:45.025Z,3052.00
2022-09-29T07:13:45.161Z,3072.00
2022-09-29T07:14:45.335Z,3096.00
2022-09-29T07:15:45.483Z,3120.00
2022-09-29T07:16:45.664Z,3140.00
2022-09-29T07:17:45.829Z,3164.00
2022-09-29T07:18:45.924Z,3188.00
2022-09-29T07:19:46.075Z,3208.00
2022-09-29T07:20:46.216Z,3228.00
2022-09-29T07:21:46.358Z,3248.00
2022-09-29T07:22:46.504Z,3268.00
2022-09-29T07:23:46.655Z,3288.00
2022-09-29T07:24:46.753Z,3308.00
2022-09-29T07:25:51.932Z,3328.00
2022-09-29T07:26:47.993Z,3352.00
2022-09-29T07:27:47.124Z,3372.00
2022-09-29T07:28:47.326Z,3404.00
2022-09-29T07:29:59.743Z,3428.00
2022-09-29T07:30:48.511Z,3448.00
2022-09-29T07:31:52.025Z,3480.00
2022-09-29T07:32:58.650Z,3500.00
2022-09-29T07:33:48.930Z,3528.00
2022-09-29T07:34:48.041Z,3552.00
2022-09-29T07:35:48.205Z,3572.00
2022-09-29T07:36:48.355Z,3592.00
2022-09-29T07:37:48.507Z,3624.00
2022-09-29T07:38:48.656Z,3652.00
2022-09-29T07:39:48.794Z,3672.00
2022-09-29T07:40:48.964Z,3708.00
2022-09-29T07:41:49.116Z,3736.00
2022-09-29T07:42:49.258Z,3768.00
2022-09-29T07:43:49.384Z,3804.00
2022-09-29T07:44:52.314Z,3836.00
2022-09-29T07:45:49.701Z,3868.00
2022-09-29T07:46:49.817Z,3912.00
2022-09-29T07:47:49.965Z,3964.00
2022-09-29T07:48:50.110Z,4008.00
2022-09-29T07:49:50.251Z,4048.00
2022-09-29T07:50:50.385Z,4088.00
2022-09-29T07:51:50.544Z,4116.00
2022-09-29T07:52:50.683Z,4148.00
2022-09-29T07:53:50.819Z,4180.00
2022-09-29T07:54:51.004Z,4212.00
2022-09-29T07:55:51.152Z,4236.00
2022-09-29T07:56:51.299Z,4268.00
2022-09-29T07:57:51.403Z,4304.00
2022-09-29T07:58:51.561Z,4332.00
2022-09-29T07:59:53.389Z,4352.00
2022-09-29T08:00:51.854Z,4392.00
2022-09-29T08:01:52.002Z,4456.00
2022-09-29T08:02:52.162Z,4504.00
2022-09-29T08:03:52.283Z,4540.00
2022-09-29T08:04:55.877Z,4584.00
2022-09-29T08:05:53.588Z,4616.00
2022-09-29T08:06:52.723Z,4672.00
2022-09-29T08:07:52.950Z,4720.00
2022-09-29T08:09:04.756Z,4772.00
2022-09-29T08:09:54.330Z,4816.00
2022-09-29T08:10:54.086Z,4868.00
2022-09-29T08:12:03.400Z,4892.00
2022-09-29T08:12:54.609Z,4924.00
2022-09-29T08:13:53.748Z,4952.00
2022-09-29T08:14:53.910Z,5020.00
2022-09-29T08:15:54.052Z,5080.00
2022-09-29T08:16:54.252Z,5140.00
2022-09-29T08:17:54.316Z,5192.00
2022-09-29T08:18:54.466Z,5236.00
2022-09-29T08:19:54.611Z,5304.00
2022-09-29T08:20:55.882Z,5364.00
2022-09-29T08:21:54.917Z,5396.00
2022-09-29T08:22:55.151Z,5396.00
2022-09-29T08:23:56.253Z,5416.00
2022-09-29T08:24:55.390Z,5480.00
2022-09-29T08:26:01.395Z,5520.00
2022-09-29T08:26:56.834Z,5516.00
2022-09-29T08:27:56.062Z,5500.00
2022-09-29T08:29:05.369Z,5496.00
2022-09-29T08:29:57.126Z,5468.00
2022-09-29T08:30:56.608Z,5460.00
2022-09-29T08:31:56.338Z,5432.00
2022-09-29T08:32:56.415Z,5436.00
2022-09-29T08:33:57.306Z,5464.00
2022-09-29T08:34:56.701Z,5468.00
2022-09-29T08:35:57.780Z,5444.00
2022-09-29T08:36:56.934Z,5440.00
2022-09-29T08:37:57.047Z,5448.00
2022-09-29T08:38:57.208Z,5456.00
2022-09-29T08:39:57.362Z,5472.00
2022-09-29T08:40:57.564Z,5512.00
2022-09-29T08:41:57.594Z,5476.00
2022-09-29T08:42:57.696Z,5460.00
2022-09-29T08:43:57.828Z,5496.00
2022-09-29T08:45:09.104Z,5484.00
2022-09-29T08:46:01.072Z,5500.00
2022-09-29T08:47:08.311Z,5528.00
2022-09-29T08:47:59.515Z,5544.00
2022-09-29T08:48:58.813Z,5564.00
2022-09-29T08:49:58.551Z,5616.00
2022-09-29T08:50:58.715Z,5644.00
2022-09-29T08:52:09.631Z,5652.00
2022-09-29T08:52:59.925Z,5632.00
2022-09-29T08:54:03.644Z,5672.00
2022-09-29T08:55:02.850Z,5780.00
2022-09-29T08:56:00.258Z,8404.00
2022-09-29T08:56:59.378Z,12708.00
2022-09-29T08:57:59.527Z,14084.00
2022-09-29T08:58:59.607Z,14276.00
2022-09-29T08:59:59.765Z,13300.00
2022-09-29T09:00:59.968Z,13540.00
2022-09-29T09:02:00.028Z,13496.00
2022-09-29T09:03:00.188Z,15584.00
2022-09-29T09:04:00.237Z,15872.00
2022-09-29T09:05:00.328Z,15392.00
2022-09-29T09:06:00.463Z,15348.00
2022-09-29T09:07:00.566Z,14144.00
2022-09-29T09:08:03.483Z,15840.00
2022-09-29T09:09:00.827Z,15872.00
2022-09-29T09:10:00.911Z,14164.00
2022-09-29T09:11:01.054Z,14152.00
2022-09-29T09:12:01.205Z,14696.00
2022-09-29T09:13:01.328Z,16928.00
2022-09-29T09:14:01.447Z,16448.00
2022-09-29T09:15:01.562Z,16736.00
2022-09-29T09:16:01.714Z,17856.00
2022-09-29T09:17:01.875Z,16864.00
2022-09-29T09:18:01.978Z,17216.00
2022-09-29T09:19:02.113Z,17472.00
2022-09-29T09:20:02.196Z,26656.00
2022-09-29T09:21:02.354Z,38848.00
2022-09-29T09:22:02.455Z,43776.00
2022-09-29T09:23:02.569Z,49120.00
2022-09-29T09:24:02.878Z,36192.00
2022-09-29T09:25:02.795Z,26592.00
2022-09-29T09:26:02.918Z,23296.00
2022-09-29T09:27:03.028Z,23776.00
2022-09-29T09:28:03.176Z,24160.00
2022-09-29T09:29:03.295Z,25568.00
2022-09-29T09:30:03.439Z,20288.00
2022-09-29T09:31:03.567Z,13684.00
2022-09-29T09:32:03.649Z,9060.00
2022-09-29T09:33:03.784Z,8144.00
2022-09-29T09:34:06.556Z,7884.00
2022-09-29T09:35:19.794Z,7904.00
2022-09-29T09:36:05.137Z,7884.00
2022-09-29T09:37:08.333Z,7908.00
2022-09-29T09:38:04.458Z,7896.00
2022-09-29T09:39:04.538Z,7856.00
2022-09-29T09:40:04.677Z,7796.00
2022-09-29T09:41:04.828Z,7824.00
2022-09-29T09:42:04.964Z,7828.00
2022-09-29T09:43:05.129Z,7860.00
2022-09-29T09:44:05.250Z,7880.00
2022-09-29T09:45:05.347Z,7900.00
2022-09-29T09:46:05.495Z,7964.00
2022-09-29T09:47:05.584Z,8000.00
2022-09-29T09:48:05.690Z,7972.00
2022-09-29T09:49:05.813Z,7992.00
2022-09-29T09:50:05.957Z,8024.00
2022-09-29T09:51:06.097Z,8124.00
2022-09-29T09:52:06.304Z,8252.00
2022-09-29T09:53:06.360Z,8900.00
2022-09-29T09:54:06.538Z,9636.00
2022-09-29T09:55:06.617Z,10456.00
2022-09-29T09:56:06.777Z,11096.00
2022-09-29T09:57:06.887Z,11964.00
2022-09-29T09:58:07.041Z,13916.00
2022-09-29T09:59:11.974Z,17920.00
2022-09-29T10:00:07.310Z,24928.00
2022-09-29T10:01:07.473Z,31424.00
2022-09-29T10:02:07.681Z,33888.00
2022-09-29T10:03:07.658Z,34528.00
2022-09-29T10:04:07.819Z,34912.00
2022-09-29T10:05:09.656Z,36000.00
2022-09-29T10:06:08.048Z,31712.00
2022-09-29T10:07:08.157Z,38272.00
2022-09-29T10:08:08.306Z,42080.00
2022-09-29T10:09:08.430Z,45152.00
2022-09-29T10:10:08.568Z,45088.00
2022-09-29T10:11:08.671Z,45664.00
2022-09-29T10:12:08.779Z,46144.00
2022-09-29T10:13:08.969Z,47744.00
2022-09-29T10:14:09.034Z,53120.00
2022-09-29T10:15:09.212Z,64032.00
2022-09-29T10:16:09.329Z,71328.00
2022-09-29T10:17:09.410Z,70464.00
2022-09-29T10:18:09.596Z,68416.00
2022-09-29T10:19:09.689Z,61568.00
2022-09-29T10:20:09.828Z,50912.00
2022-09-29T10:21:09.990Z,55840.00
2022-09-29T10:22:10.226Z,58176.00
2022-09-29T10:23:10.262Z,58720.00
2022-09-29T10:24:10.370Z,65728.00
2022-09-29T10:25:10.520Z,70272.00
2022-09-29T10:26:10.631Z,61056.00
2022-09-29T10:27:11.018Z,36960.00
2022-09-29T10:28:10.914Z,59552.00
2022-09-29T10:29:11.018Z,60672.00
2022-09-29T10:30:11.166Z,11980.00
2022-09-29T10:31:11.320Z,11468.00
2022-09-29T10:32:11.370Z,56416.00
2022-09-29T10:33:11.461Z,8996.00
2022-09-29T10:34:11.581Z,8812.00
2022-09-29T10:35:11.702Z,9136.00
2022-09-29T10:36:11.810Z,9720.00
2022-09-29T10:37:11.970Z,10096.00
2022-09-29T10:38:12.070Z,20608.00
2022-09-29T10:39:12.239Z,58464.00
2022-09-29T10:40:12.331Z,63808.00
2022-09-29T10:41:12.450Z,62432.00
2022-09-29T10:42:12.562Z,12572.00
2022-09-29T10:43:12.732Z,10924.00
2022-09-29T10:44:12.897Z,11472.00
2022-09-29T10:45:12.950Z,66752.00
2022-09-29T10:46:13.089Z,68544.00
2022-09-29T10:47:13.204Z,69856.00
2022-09-29T10:48:13.333Z,64224.00
2022-09-29T10:49:13.423Z,60064.00
2022-09-29T10:50:13.543Z,63232.00
2022-09-29T10:51:13.672Z,61696.00
2022-09-29T10:52:13.804Z,62560.00
2022-09-29T10:53:13.904Z,61152.00
2022-09-29T10:54:14.024Z,68448.00
2022-09-29T10:55:14.151Z,63680.00
2022-09-29T10:56:14.265Z,15840.00
2022-09-29T10:57:14.401Z,15156.00
2022-09-29T10:58:22.900Z,15900.00
2022-09-29T10:59:15.616Z,15300.00
2022-09-29T11:00:14.752Z,16200.00
2022-09-29T11:01:14.921Z,49120.00
2022-09-29T11:02:15.041Z,15068.00
2022-09-29T11:03:15.124Z,14740.00
2022-09-29T11:04:15.224Z,16320.00
2022-09-29T11:05:15.394Z,63744.00
2022-09-29T11:06:15.514Z,56256.00
2022-09-29T11:07:15.665Z,33056.00
2022-09-29T11:08:15.781Z,13280.00
2022-09-29T11:09:16.110Z,10108.00
2022-09-29T11:10:16.013Z,9356.00
2022-09-29T11:11:16.112Z,9780.00
2022-09-29T11:12:16.225Z,9884.00
2022-09-29T11:13:16.375Z,10236.00
2022-09-29T11:14:16.507Z,11236.00
2022-09-29T11:15:16.601Z,11852.00
2022-09-29T11:16:16.748Z,18592.00
2022-09-29T11:17:16.854Z,71616.00
2022-09-29T11:18:17.008Z,70016.00
2022-09-29T11:19:17.179Z,9696.00
2022-09-29T11:20:17.205Z,9772.00
2022-09-29T11:21:17.357Z,54016.00
2022-09-29T11:22:17.475Z,67392.00
2022-09-29T11:23:17.626Z,67776.00
2022-09-29T11:24:17.754Z,68576.00
2022-09-29T11:25:17.867Z,68384.00
2022-09-29T11:26:17.976Z,69120.00
2022-09-29T11:27:18.087Z,67776.00
2022-09-29T11:28:18.196Z,65696.00
2022-09-29T11:29:18.380Z,66880.00
2022-09-29T11:30:18.458Z,70144.00
2022-09-29T11:31:18.630Z,72224.00
2022-09-29T11:32:19.469Z,74112.00
2022-09-29T11:33:18.854Z,72192.00
2022-09-29T11:34:18.986Z,74304.00
2022-09-29T11:35:19.147Z,74304.00
2022-09-29T11:36:19.276Z,71552.00
2022-09-29T11:37:19.387Z,74752.00
2022-09-29T11:38:19.495Z,72448.00
2022-09-29T11:39:19.729Z,71008.00
2022-09-29T11:40:19.769Z,74848.00
2022-09-29T11:41:19.936Z,75328.00
2022-09-29T11:42:20.025Z,72960.00
2022-09-29T11:43:20.177Z,66976.00
2022-09-29T11:44:20.370Z,69312.00
2022-09-29T11:45:20.437Z,74112.00
2022-09-29T11:46:20.604Z,80160.00
2022-09-29T11:47:20.657Z,79520.00
2022-09-29T11:48:20.769Z,75360.00
2022-09-29T11:49:21.013Z,72800.00
2022-09-29T11:50:21.025Z,77568.00
2022-09-29T11:51:21.189Z,78912.00
2022-09-29T11:52:21.298Z,81376.00
2022-09-29T11:53:21.708Z,84544.00
2022-09-29T11:54:21.544Z,85568.00
2022-09-29T11:55:21.658Z,82720.00
2022-09-29T11:56:21.770Z,83712.00
2022-09-29T11:57:21.962Z,83200.00
2022-09-29T11:58:22.021Z,82496.00
2022-09-29T11:59:22.174Z,83488.00
2022-09-29T12:00:22.277Z,86624.00
2022-09-29T12:01:22.463Z,86112.00
2022-09-29T12:02:22.769Z,89280.00
2022-09-29T12:03:22.682Z,86784.00
2022-09-29T12:04:22.790Z,85984.00
2022-09-29T12:05:22.912Z,84064.00
2022-09-29T12:06:23.012Z,84128.00
2022-09-29T12:07:23.169Z,84992.00
2022-09-29T12:08:23.292Z,87296.00
2022-09-29T12:09:23.560Z,90080.00
2022-09-29T12:10:26.008Z,90080.00
2022-09-29T12:11:47.464Z,50880.00
2022-09-29T12:12:25.146Z,13168.00
2022-09-29T12:13:23.903Z,90624.00
2022-09-29T12:14:24.052Z,91616.00
2022-09-29T12:16:24.293Z,88416.00
2022-09-29T12:17:24.372Z,87712.00
2022-09-29T12:18:24.500Z,90912.00
2022-09-29T12:19:24.627Z,93696.00
2022-09-29T12:20:24.752Z,94080.00
2022-09-29T12:21:24.851Z,91424.00
2022-09-29T12:22:24.972Z,89856.00
2022-09-29T12:23:25.063Z,90592.00
2022-09-29T12:24:25.179Z,90656.00
2022-09-29T12:25:25.300Z,90848.00
2022-09-29T12:26:25.401Z,94048.00
2022-09-29T12:27:25.564Z,96768.00
2022-09-29T12:28:25.672Z,97216.00
2022-09-29T12:29:25.833Z,95680.00
2022-09-29T12:30:25.956Z,96224.00
2022-09-29T12:31:26.052Z,95264.00
2022-09-29T12:32:26.172Z,93088.00
2022-09-29T12:33:26.303Z,90528.00